createdAt,value
2023-05-12T00:00:22.729Z,1014.27
2023-05-12T00:01:22.704Z,1014.23
2023-05-12T00:02:22.770Z,1014.24
2023-05-12T00:03:22.756Z,1014.14
2023-05-12T00:04:22.726Z,1014.13
2023-05-12T00:05:22.683Z,1014.24
2023-05-12T00:06:22.646Z,1014.24
2023-05-12T00:07:22.645Z,1014.16
2023-05-12T00:08:22.621Z,1014.21
2023-05-12T00:09:22.637Z,1014.22
2023-05-12T00:10:22.623Z,1014.19
2023-05-12T00:11:22.587Z,1014.22
2023-05-12T00:12:22.580Z,1014.19
2023-05-12T00:13:22.630Z,1014.19
2023-05-12T00:14:22.564Z,1014.18
2023-05-12T00:15:22.542Z,1014.24
2023-05-12T00:16:22.588Z,1014.23
2023-05-12T00:17:22.580Z,1014.21
2023-05-12T00:18:22.570Z,1014.21
2023-05-12T00:19:22.508Z,1014.21
2023-05-12T00:20:22.734Z,1014.20
2023-05-12T00:21:22.485Z,1014.20
2023-05-12T00:22:22.476Z,1014.17
2023-05-12T00:23:22.465Z,1014.22
2023-05-12T00:24:22.453Z,1014.17
2023-05-12T00:25:22.460Z,1014.17
2023-05-12T00:26:22.448Z,1014.17
2023-05-12T00:27:22.439Z,1014.18
2023-05-12T00:28:22.410Z,1014.21
2023-05-12T00:29:22.391Z,1014.21
2023-05-12T00:30:22.491Z,1014.16
2023-05-12T00:31:22.430Z,1014.17
2023-05-12T00:32:22.387Z,1014.20
2023-05-12T00:33:22.353Z,1014.17
2023-05-12T00:34:22.344Z,1014.25
2023-05-12T00:35:22.329Z,1014.16
2023-05-12T00:36:22.345Z,1014.20
2023-05-12T00:37:22.303Z,1014.20
2023-05-12T00:38:22.316Z,1014.20
2023-05-12T00:39:22.303Z,1014.24
2023-05-12T00:40:22.275Z,1014.29
2023-05-12T00:41:22.328Z,1014.22
2023-05-12T00:42:22.254Z,1014.19
2023-05-12T00:43:22.252Z,1014.15
2023-05-12T00:44:22.242Z,1014.26
2023-05-12T00:45:22.227Z,1014.22
2023-05-12T00:46:22.247Z,1014.22
2023-05-12T00:47:22.209Z,1014.19
2023-05-12T00:48:22.194Z,1014.20
2023-05-12T00:49:22.180Z,1014.24
2023-05-12T00:50:22.358Z,1014.25
2023-05-12T00:51:22.203Z,1014.23
2023-05-12T00:52:22.149Z,1014.25
2023-05-12T00:53:22.160Z,1014.29
2023-05-12T00:54:22.130Z,1014.27
2023-05-12T00:55:22.128Z,1014.28
2023-05-12T00:56:22.134Z,1014.31
2023-05-12T00:57:22.142Z,1014.26
2023-05-12T00:58:22.086Z,1014.28
2023-05-12T00:59:22.080Z,1014.24
2023-05-12T01:00:22.261Z,1014.29
2023-05-12T01:01:22.134Z,1014.28
2023-05-12T01:02:22.166Z,1014.23
2023-05-12T01:03:22.287Z,1014.29
2023-05-12T01:04:22.018Z,1014.34
2023-05-12T01:05:22.008Z,1014.26
2023-05-12T01:06:22.026Z,1014.31
2023-05-12T01:07:22.001Z,1014.29
2023-05-12T01:08:21.996Z,1014.29
2023-05-12T01:09:21.987Z,1014.34
2023-05-12T01:10:22.272Z,1014.29
2023-05-12T01:11:21.948Z,1014.35
2023-05-12T01:12:21.951Z,1014.34
2023-05-12T01:13:21.971Z,1014.28
2023-05-12T01:14:21.919Z,1014.30
2023-05-12T01:15:21.898Z,1014.33
2023-05-12T01:16:21.890Z,1014.34
2023-05-12T01:17:21.974Z,1014.31
2023-05-12T01:18:22.031Z,1014.34
2023-05-12T01:19:21.869Z,1014.34
2023-05-12T01:20:22.062Z,1014.33
2023-05-12T01:21:21.836Z,1014.38
2023-05-12T01:22:21.829Z,1014.34
2023-05-12T01:23:21.814Z,1014.39
2023-05-12T01:24:21.799Z,1014.34
2023-05-12T01:25:21.792Z,1014.41
2023-05-12T01:26:21.809Z,1014.41
2023-05-12T01:27:21.792Z,1014.38
2023-05-12T01:28:21.757Z,1014.41
2023-05-12T01:29:21.763Z,1014.36
2023-05-12T01:30:22.161Z,1014.37
2023-05-12T01:31:21.762Z,1014.46
2023-05-12T01:32:21.799Z,1014.45
2023-05-12T01:33:21.715Z,1014.40
2023-05-12T01:34:21.700Z,1014.43
2023-05-12T01:35:21.677Z,1014.45
2023-05-12T01:36:21.669Z,1014.44
2023-05-12T01:37:21.705Z,1014.52
2023-05-12T01:38:21.679Z,1014.42
2023-05-12T01:39:21.635Z,1014.39
2023-05-12T01:40:21.854Z,1014.49
2023-05-12T01:41:21.613Z,1014.49
2023-05-12T01:42:21.644Z,1014.46
2023-05-12T01:43:22.291Z,1014.47
2023-05-12T01:44:21.587Z,1014.43
2023-05-12T01:45:21.591Z,1014.49
2023-05-12T01:46:21.602Z,1014.45
2023-05-12T01:47:21.679Z,1014.50
2023-05-12T01:48:21.563Z,1014.47
2023-05-12T01:49:21.524Z,1014.45
2023-05-12T01:50:21.743Z,1014.44
2023-05-12T01:51:21.522Z,1014.46
2023-05-12T01:52:21.519Z,1014.46
2023-05-12T01:53:21.474Z,1014.46
2023-05-12T01:54:21.465Z,1014.51
2023-05-12T01:55:21.464Z,1014.44
2023-05-12T01:56:21.469Z,1014.52
2023-05-12T01:57:21.442Z,1014.46
2023-05-12T01:58:21.427Z,1014.43
2023-05-12T01:59:21.478Z,1014.45
2023-05-12T02:00:21.888Z,1014.43
2023-05-12T02:01:21.490Z,1014.45
2023-05-12T02:02:21.380Z,1014.40
2023-05-12T02:03:21.494Z,1014.45
2023-05-12T02:04:21.359Z,1014.43
2023-05-12T02:05:21.353Z,1014.45
2023-05-12T02:06:21.368Z,1014.45
2023-05-12T02:07:21.323Z,1014.48
2023-05-12T02:08:21.320Z,1014.48
2023-05-12T02:09:21.317Z,1014.44
2023-05-12T02:10:21.505Z,1014.50
2023-05-12T02:11:21.306Z,1014.53
2023-05-12T02:12:21.277Z,1014.55
2023-05-12T02:13:21.273Z,1014.56
2023-05-12T02:14:21.258Z,1014.59
2023-05-12T02:15:21.246Z,1014.61
2023-05-12T02:16:21.336Z,1014.58
2023-05-12T02:17:21.262Z,1014.62
2023-05-12T02:18:21.247Z,1014.65
2023-05-12T02:19:21.209Z,1014.61
2023-05-12T02:20:21.451Z,1014.62
2023-05-12T02:21:21.202Z,1014.58
2023-05-12T02:22:21.175Z,1014.61
2023-05-12T02:23:21.166Z,1014.66
2023-05-12T02:24:21.147Z,1014.65
2023-05-12T02:25:21.136Z,1014.67
2023-05-12T02:26:21.166Z,1014.64
2023-05-12T02:27:21.137Z,1014.69
2023-05-12T02:28:21.109Z,1014.66
2023-05-12T02:29:21.116Z,1014.65
2023-05-12T02:30:21.369Z,1014.72
2023-05-12T02:31:21.106Z,1014.64
2023-05-12T02:32:21.105Z,1014.79
2023-05-12T02:33:21.199Z,1014.66
2023-05-12T02:34:21.041Z,1014.74
2023-05-12T02:35:21.027Z,1014.75
2023-05-12T02:36:21.019Z,1014.75
2023-05-12T02:37:21.028Z,1014.76
2023-05-12T02:38:20.997Z,1014.75
2023-05-12T02:39:20.991Z,1014.78
2023-05-12T02:40:21.169Z,1014.71
2023-05-12T02:41:20.988Z,1014.68
2023-05-12T02:42:20.953Z,1014.76
2023-05-12T02:43:20.947Z,1014.76
2023-05-12T02:44:20.933Z,1014.75
2023-05-12T02:45:20.939Z,1014.72
2023-05-12T02:46:20.940Z,1014.75
2023-05-12T02:47:20.930Z,1014.77
2023-05-12T02:48:20.901Z,1014.67
2023-05-12T02:49:20.916Z,1014.72
2023-05-12T02:50:21.029Z,1014.75
2023-05-12T02:51:20.858Z,1014.71
2023-05-12T02:52:20.850Z,1014.70
2023-05-12T02:53:20.861Z,1014.70
2023-05-12T02:54:20.840Z,1014.75
2023-05-12T02:55:20.814Z,1014.71
2023-05-12T02:56:20.831Z,1014.66
2023-05-12T02:57:20.798Z,1014.69
2023-05-12T02:58:20.810Z,1014.70
2023-05-12T02:59:20.770Z,1014.68
2023-05-12T03:00:20.927Z,1014.65
2023-05-12T03:01:20.763Z,1014.67
2023-05-12T03:02:20.805Z,1014.67
2023-05-12T03:03:20.829Z,1014.65
2023-05-12T03:04:20.724Z,1014.62
2023-05-12T03:05:20.778Z,1014.60
2023-05-12T03:06:20.717Z,1014.65
2023-05-12T03:07:20.680Z,1014.65
2023-05-12T03:08:20.699Z,1014.60
2023-05-12T03:09:20.675Z,1014.62
2023-05-12T03:10:20.837Z,1014.62
2023-05-12T03:11:20.647Z,1014.68
2023-05-12T03:12:20.653Z,1014.67
2023-05-12T03:13:20.648Z,1014.67
2023-05-12T03:14:20.631Z,1014.73
2023-05-12T03:15:20.603Z,1014.67
2023-05-12T03:16:20.674Z,1014.74
2023-05-12T03:17:20.634Z,1014.72
2023-05-12T03:18:20.634Z,1014.75
2023-05-12T03:19:20.562Z,1014.72
2023-05-12T03:20:20.789Z,1014.71
2023-05-12T03:21:20.554Z,1014.72
2023-05-12T03:22:20.548Z,1014.71
2023-05-12T03:23:20.508Z,1014.70
2023-05-12T03:24:20.506Z,1014.72
2023-05-12T03:25:20.489Z,1014.73
2023-05-12T03:26:20.498Z,1014.71
2023-05-12T03:27:20.491Z,1014.72
2023-05-12T03:28:20.460Z,1014.77
2023-05-12T03:29:20.442Z,1014.73
2023-05-12T03:30:20.679Z,1014.74
2023-05-12T03:31:20.484Z,1014.84
2023-05-12T03:32:20.481Z,1014.83
2023-05-12T03:33:20.407Z,1014.80
2023-05-12T03:34:20.403Z,1014.87
2023-05-12T03:35:20.390Z,1014.79
2023-05-12T03:36:20.366Z,1014.81
2023-05-12T03:37:20.440Z,1014.80
2023-05-12T03:38:20.361Z,1014.81
2023-05-12T03:39:20.339Z,1014.81
2023-05-12T03:40:20.667Z,1014.76
2023-05-12T03:41:20.314Z,1014.80
2023-05-12T03:42:20.304Z,1014.80
2023-05-12T03:43:20.313Z,1014.76
2023-05-12T03:44:20.281Z,1014.81
2023-05-12T03:45:20.281Z,1014.78
2023-05-12T03:46:20.293Z,1014.82
2023-05-12T03:47:20.367Z,1014.85
2023-05-12T03:48:20.310Z,1014.82
2023-05-12T03:49:20.248Z,1014.80
2023-05-12T03:50:20.403Z,1014.78
2023-05-12T03:51:20.222Z,1014.80
2023-05-12T03:52:20.198Z,1014.81
2023-05-12T03:53:20.228Z,1014.90
2023-05-12T03:54:20.177Z,1014.83
2023-05-12T03:55:20.165Z,1014.80
2023-05-12T03:56:20.148Z,1014.87
2023-05-12T03:57:20.136Z,1014.86
2023-05-12T03:58:20.149Z,1014.85
2023-05-12T03:59:20.123Z,1014.83
2023-05-12T04:00:20.284Z,1014.88
2023-05-12T04:01:20.098Z,1014.87
2023-05-12T04:02:20.134Z,1014.85
2023-05-12T04:03:20.217Z,1014.86
2023-05-12T04:04:20.068Z,1014.85
2023-05-12T04:05:20.053Z,1014.88
2023-05-12T04:06:20.045Z,1014.88
2023-05-12T04:07:20.035Z,1014.87
2023-05-12T04:08:20.054Z,1014.90
2023-05-12T04:09:20.147Z,1014.90
2023-05-12T04:10:20.323Z,1014.92
2023-05-12T04:11:19.987Z,1014.86
2023-05-12T04:12:19.978Z,1014.91
2023-05-12T04:13:19.966Z,1014.93
2023-05-12T04:14:26.531Z,1014.85
2023-05-12T04:15:20.941Z,1014.92
2023-05-12T04:16:19.943Z,1014.94
2023-05-12T04:17:19.984Z,1014.91
2023-05-12T04:18:19.944Z,1014.89
2023-05-12T04:19:19.925Z,1014.86
2023-05-12T04:20:20.085Z,1014.92
2023-05-12T04:21:19.883Z,1014.95
2023-05-12T04:22:19.887Z,1014.91
2023-05-12T04:23:19.887Z,1014.90
2023-05-12T04:24:19.850Z,1014.94
2023-05-12T04:25:19.863Z,1014.91
2023-05-12T04:26:19.843Z,1014.92
2023-05-12T04:27:19.821Z,1014.96
2023-05-12T04:28:19.805Z,1014.92
2023-05-12T04:29:19.799Z,1014.93
2023-05-12T04:30:20.096Z,1014.97
2023-05-12T04:31:19.895Z,1014.97
2023-05-12T04:32:19.856Z,1014.98
2023-05-12T04:33:19.752Z,1015.04
2023-05-12T04:34:19.771Z,1015.00
2023-05-12T04:35:19.736Z,1015.00
2023-05-12T04:36:19.721Z,1014.99
2023-05-12T04:37:19.711Z,1014.92
2023-05-12T04:38:19.702Z,1014.96
2023-05-12T04:39:19.712Z,1014.99
2023-05-12T04:40:19.873Z,1015.00
2023-05-12T04:41:19.712Z,1015.01
2023-05-12T04:42:19.656Z,1014.98
2023-05-12T04:44:19.651Z,1015.04
2023-05-12T04:45:20.076Z,1015.10
2023-05-12T04:46:19.634Z,1015.00
2023-05-12T04:47:19.637Z,1015.13
2023-05-12T04:48:19.588Z,1015.05
2023-05-12T04:49:19.617Z,1015.11
2023-05-12T04:50:19.571Z,1015.11
2023-05-12T04:51:19.564Z,1015.14
2023-05-12T04:52:19.575Z,1015.15
2023-05-12T04:53:19.541Z,1015.09
2023-05-12T04:54:19.557Z,1015.20
2023-05-12T04:55:19.766Z,1015.11
2023-05-12T04:56:19.503Z,1015.20
2023-05-12T04:57:19.531Z,1015.16
2023-05-12T04:58:19.484Z,1015.23
2023-05-12T04:59:19.481Z,1015.19
2023-05-12T05:00:19.488Z,1015.14
2023-05-12T05:01:19.494Z,1015.26
2023-05-12T05:02:19.483Z,1015.23
2023-05-12T05:03:19.514Z,1015.12
2023-05-12T05:04:19.425Z,1015.23
2023-05-12T05:05:19.831Z,1015.23
2023-05-12T05:06:19.397Z,1015.24
2023-05-12T05:07:19.382Z,1015.27
2023-05-12T05:08:19.396Z,1015.27
2023-05-12T05:09:19.383Z,1015.27
2023-05-12T05:10:19.349Z,1015.27
2023-05-12T05:11:19.343Z,1015.31
2023-05-12T05:12:19.324Z,1015.36
2023-05-12T05:13:19.375Z,1015.31
2023-05-12T05:14:19.323Z,1015.37
2023-05-12T05:15:19.535Z,1015.36
2023-05-12T05:16:19.284Z,1015.30
2023-05-12T05:17:19.297Z,1015.37
2023-05-12T05:18:20.516Z,1015.36
2023-05-12T05:19:27.963Z,1015.40
2023-05-12T05:20:19.799Z,1015.35
2023-05-12T05:21:19.235Z,1015.37
2023-05-12T05:22:19.217Z,1015.36
2023-05-12T05:23:19.213Z,1015.41
2023-05-12T05:24:19.216Z,1015.38
2023-05-12T05:25:19.371Z,1015.43
2023-05-12T05:26:19.178Z,1015.44
2023-05-12T05:27:19.167Z,1015.35
2023-05-12T05:28:19.165Z,1015.36
2023-05-12T05:29:19.208Z,1015.36
2023-05-12T05:30:19.147Z,1015.43
2023-05-12T05:31:19.141Z,1015.39
2023-05-12T05:32:19.112Z,1015.37
2023-05-12T05:33:19.111Z,1015.38
2023-05-12T05:34:19.186Z,1015.40
2023-05-12T05:35:19.223Z,1015.39
2023-05-12T05:36:19.072Z,1015.41
2023-05-12T05:37:19.078Z,1015.41
2023-05-12T05:38:19.042Z,1015.39
2023-05-12T05:39:19.056Z,1015.46
2023-05-12T05:40:19.019Z,1015.43
2023-05-12T05:41:19.022Z,1015.47
2023-05-12T05:42:19.005Z,1015.44
2023-05-12T05:43:19.044Z,1015.45
2023-05-12T05:44:19.015Z,1015.51
2023-05-12T05:45:19.086Z,1015.47
2023-05-12T05:46:18.981Z,1015.49
2023-05-12T05:47:18.957Z,1015.48
2023-05-12T05:48:18.963Z,1015.53
2023-05-12T05:49:18.933Z,1015.52
2023-05-12T05:50:18.916Z,1015.55
2023-05-12T05:51:18.928Z,1015.57
2023-05-12T05:52:18.908Z,1015.57
2023-05-12T05:53:19.493Z,1015.57
2023-05-12T05:54:18.879Z,1015.50
2023-05-12T05:55:19.314Z,1015.54
2023-05-12T05:56:18.863Z,1015.54
2023-05-12T05:57:18.842Z,1015.57
2023-05-12T05:58:18.851Z,1015.57
2023-05-12T05:59:18.807Z,1015.54
2023-05-12T06:00:18.828Z,1015.54
2023-05-12T06:01:18.937Z,1015.59
2023-05-12T06:02:18.807Z,1015.62
2023-05-12T06:03:18.850Z,1015.52
2023-05-12T06:04:18.882Z,1015.54
2023-05-12T06:05:18.891Z,1015.57
2023-05-12T06:06:18.744Z,1015.58
2023-05-12T06:07:20.025Z,1015.60
2023-05-12T06:08:18.714Z,1015.61
2023-05-12T06:09:18.736Z,1015.55
2023-05-12T06:10:19.043Z,1015.67
2023-05-12T06:11:18.687Z,1015.64
2023-05-12T06:12:18.676Z,1015.61
2023-05-12T06:13:18.661Z,1015.65
2023-05-12T06:14:18.677Z,1015.60
2023-05-12T06:15:19.042Z,1015.67
2023-05-12T06:16:18.703Z,1015.68
2023-05-12T06:17:18.672Z,1015.65
2023-05-12T06:18:18.622Z,1015.68
2023-05-12T06:19:18.618Z,1015.63
2023-05-12T06:20:18.619Z,1015.74
2023-05-12T06:21:18.577Z,1015.69
2023-05-12T06:22:18.562Z,1015.72
2023-05-12T06:23:18.564Z,1015.66
2023-05-12T06:24:18.547Z,1015.68
2023-05-12T06:25:18.771Z,1015.72
2023-05-12T06:26:18.553Z,1015.70
2023-05-12T06:27:18.511Z,1015.79
2023-05-12T06:28:18.504Z,1015.81
2023-05-12T06:29:18.500Z,1015.80
2023-05-12T06:30:18.478Z,1015.81
2023-05-12T06:31:18.554Z,1015.76
2023-05-12T06:32:18.510Z,1015.75
2023-05-12T06:33:18.491Z,1015.81
2023-05-12T06:34:18.446Z,1015.83
2023-05-12T06:35:18.645Z,1015.86
2023-05-12T06:36:18.433Z,1015.81
2023-05-12T06:37:18.428Z,1015.90
2023-05-12T06:38:18.398Z,1015.78
2023-05-12T06:39:18.394Z,1015.80
2023-05-12T06:40:18.415Z,1015.85
2023-05-12T06:41:18.371Z,1015.83
2023-05-12T06:42:18.370Z,1015.84
2023-05-12T06:43:18.350Z,1015.85
2023-05-12T06:44:18.332Z,1015.86
2023-05-12T06:45:18.557Z,1015.86
2023-05-12T06:46:18.348Z,1015.90
2023-05-12T06:47:18.306Z,1015.84
2023-05-12T06:48:18.286Z,1015.83
2023-05-12T06:49:18.301Z,1015.85
2023-05-12T06:50:18.284Z,1015.88
2023-05-12T06:51:18.272Z,1015.85
2023-05-12T06:52:18.252Z,1015.85
2023-05-12T06:53:18.240Z,1015.82
2023-05-12T06:54:18.224Z,1015.87
2023-05-12T06:55:18.404Z,1015.87
2023-05-12T06:56:18.198Z,1015.91
2023-05-12T06:57:18.194Z,1015.93
2023-05-12T06:58:18.183Z,1015.91
2023-05-12T06:59:20.203Z,1015.91
2023-05-12T07:00:18.160Z,1015.80
2023-05-12T07:01:18.212Z,1015.83
2023-05-12T07:02:18.135Z,1015.85
2023-05-12T07:03:18.207Z,1015.86
2023-05-12T07:04:18.110Z,1015.81
2023-05-12T07:05:18.309Z,1015.83
2023-05-12T07:06:18.156Z,1015.79
2023-05-12T07:07:18.096Z,1015.84
2023-05-12T07:08:18.065Z,1015.80
2023-05-12T07:09:18.088Z,1015.86
2023-05-12T07:10:18.041Z,1015.85
2023-05-12T07:11:18.039Z,1015.85
2023-05-12T07:12:18.046Z,1015.88
2023-05-12T07:13:18.013Z,1015.84
2023-05-12T07:14:18.036Z,1015.92
2023-05-12T07:15:18.049Z,1015.79
2023-05-12T07:16:18.028Z,1015.82
2023-05-12T07:17:17.995Z,1015.85
2023-05-12T07:18:17.958Z,1015.84
2023-05-12T07:19:17.974Z,1015.89
2023-05-12T07:20:17.944Z,1015.89
2023-05-12T07:21:17.953Z,1015.84
2023-05-12T07:22:17.920Z,1015.89
2023-05-12T07:23:17.905Z,1015.86
2023-05-12T07:24:17.930Z,1015.91
2023-05-12T07:25:18.086Z,1015.86
2023-05-12T07:26:17.874Z,1015.90
2023-05-12T07:27:17.863Z,1015.86
2023-05-12T07:28:17.846Z,1015.88
2023-05-12T07:29:17.839Z,1015.93
2023-05-12T07:30:17.845Z,1015.88
2023-05-12T07:31:17.869Z,1015.92
2023-05-12T07:32:17.803Z,1015.93
2023-05-12T07:33:17.805Z,1015.97
2023-05-12T07:34:17.781Z,1015.94
2023-05-12T07:35:17.849Z,1015.94
2023-05-12T07:36:18.289Z,1015.95
2023-05-12T07:37:17.979Z,1015.93
2023-05-12T07:38:17.760Z,1015.92
2023-05-12T07:39:17.734Z,1015.90
2023-05-12T07:40:17.731Z,1015.89
2023-05-12T07:41:17.720Z,1015.94
2023-05-12T07:42:17.706Z,1015.91
2023-05-12T07:43:17.742Z,1015.94
2023-05-12T07:44:17.689Z,1015.91
2023-05-12T07:45:17.761Z,1015.93
2023-05-12T07:46:17.658Z,1015.90
2023-05-12T07:47:17.715Z,1015.87
2023-05-12T07:48:17.661Z,1015.89
2023-05-12T07:49:17.625Z,1015.88
2023-05-12T07:50:17.631Z,1015.91
2023-05-12T07:51:17.608Z,1015.88
2023-05-12T07:52:17.596Z,1015.89
2023-05-12T07:53:17.632Z,1015.87
2023-05-12T07:54:17.575Z,1015.87
2023-05-12T07:55:17.632Z,1015.88
2023-05-12T07:56:17.553Z,1015.91
2023-05-12T07:57:17.561Z,1015.87
2023-05-12T07:58:17.528Z,1015.95
2023-05-12T07:59:17.528Z,1015.91
2023-05-12T08:00:17.523Z,1015.90
2023-05-12T08:01:17.500Z,1015.95
2023-05-12T08:02:17.567Z,1015.94
2023-05-12T08:03:17.625Z,1015.95
2023-05-12T08:04:17.529Z,1015.98
2023-05-12T08:05:17.525Z,1016.01
2023-05-12T08:06:17.443Z,1015.91
2023-05-12T08:07:17.451Z,1015.91
2023-05-12T08:08:17.426Z,1015.91
2023-05-12T08:09:17.440Z,1015.95
2023-05-12T08:10:17.402Z,1015.98
2023-05-12T08:11:17.393Z,1015.90
2023-05-12T08:12:17.400Z,1015.95
2023-05-12T08:13:17.371Z,1015.93
2023-05-12T08:14:17.359Z,1015.93
2023-05-12T08:15:17.355Z,1015.99
2023-05-12T08:16:17.369Z,1016.07
2023-05-12T08:17:17.439Z,1016.01
2023-05-12T08:18:17.347Z,1015.96
2023-05-12T08:19:17.337Z,1016.05
2023-05-12T08:20:17.295Z,1015.95
2023-05-12T08:21:17.301Z,1015.95
2023-05-12T08:22:17.297Z,1015.88
2023-05-12T08:23:17.252Z,1015.91
2023-05-12T08:24:17.250Z,1015.91
2023-05-12T08:25:17.384Z,1015.98
2023-05-12T08:26:17.232Z,1015.90
2023-05-12T08:27:17.239Z,1015.96
2023-05-12T08:28:17.208Z,1015.94
2023-05-12T08:29:17.220Z,1015.95
2023-05-12T08:30:17.184Z,1015.94
2023-05-12T08:31:17.229Z,1015.87
2023-05-12T08:32:17.171Z,1015.93
2023-05-12T08:33:17.178Z,1016.02
2023-05-12T08:34:17.141Z,1015.97
2023-05-12T08:35:17.134Z,1015.92
2023-05-12T08:36:17.123Z,1015.97
2023-05-12T08:37:17.107Z,1015.97
2023-05-12T08:38:17.096Z,1016.03
2023-05-12T08:39:17.111Z,1015.96
2023-05-12T08:40:17.074Z,1016.00
2023-05-12T08:41:17.118Z,1015.92
2023-05-12T08:42:17.051Z,1016.00
2023-05-12T08:43:17.044Z,1015.98
2023-05-12T08:44:17.054Z,1015.96
2023-05-12T08:45:17.088Z,1015.90
2023-05-12T08:46:17.119Z,1015.88
2023-05-12T08:47:17.000Z,1015.88
2023-05-12T08:48:17.030Z,1015.94
2023-05-12T08:49:16.998Z,1015.93
2023-05-12T08:50:16.972Z,1015.98
2023-05-12T08:51:16.981Z,1015.94
2023-05-12T08:52:16.949Z,1015.93
2023-05-12T08:53:16.935Z,1015.96
2023-05-12T08:54:16.925Z,1015.87
2023-05-12T08:55:16.912Z,1015.99
2023-05-12T08:57:16.971Z,1015.96
2023-05-12T08:58:16.878Z,1015.93
2023-05-12T08:59:16.863Z,1015.98
2023-05-12T09:00:16.858Z,1015.99
2023-05-12T09:01:16.951Z,1016.01
2023-05-12T09:02:16.854Z,1015.91
2023-05-12T09:03:16.862Z,1015.94
2023-05-12T09:04:16.837Z,1015.95
2023-05-12T09:05:16.860Z,1015.99
2023-05-12T09:06:16.833Z,1015.96
2023-05-12T09:07:16.785Z,1015.99
2023-05-12T09:08:16.771Z,1016.03
2023-05-12T09:09:16.754Z,1015.98
2023-05-12T09:10:32.984Z,1016.00
2023-05-12T09:11:17.755Z,1015.98
2023-05-12T09:12:16.927Z,1015.93
2023-05-12T09:13:16.752Z,1015.99
2023-05-12T09:14:16.718Z,1015.96
2023-05-12T09:15:16.706Z,1015.98
2023-05-12T09:16:16.765Z,1015.94
2023-05-12T09:17:16.694Z,1015.89
2023-05-12T09:18:16.669Z,1015.99
2023-05-12T09:19:16.773Z,1016.00
2023-05-12T09:20:30.420Z,1015.84
2023-05-12T09:21:17.652Z,1015.90
2023-05-12T09:22:16.630Z,1015.99
2023-05-12T09:23:16.612Z,1015.88
2023-05-12T09:24:16.602Z,1016.01
2023-05-12T09:25:16.601Z,1015.97
2023-05-12T09:26:16.649Z,1015.98
2023-05-12T09:27:16.569Z,1016.00
2023-05-12T09:28:16.597Z,1015.94
2023-05-12T09:29:27.689Z,1016.03
2023-05-12T09:30:17.539Z,1016.07
2023-05-12T09:31:16.591Z,1016.02
2023-05-12T09:32:16.536Z,1016.05
2023-05-12T09:33:16.536Z,1015.95
2023-05-12T09:34:16.496Z,1015.87
2023-05-12T09:35:16.512Z,1016.00
2023-05-12T09:36:16.486Z,1015.97
2023-05-12T09:37:16.493Z,1015.84
2023-05-12T09:38:16.484Z,1015.97
2023-05-12T09:39:16.440Z,1015.95
2023-05-12T09:40:16.434Z,1015.93
2023-05-12T09:41:16.428Z,1015.99
2023-05-12T09:42:16.440Z,1015.96
2023-05-12T09:43:16.406Z,1015.91
2023-05-12T09:44:16.412Z,1015.90
2023-05-12T09:45:16.401Z,1015.99
2023-05-12T09:46:16.424Z,1015.91
2023-05-12T09:47:16.381Z,1015.91
2023-05-12T09:48:16.401Z,1015.96
2023-05-12T09:49:16.340Z,1015.93
2023-05-12T09:50:16.330Z,1015.90
2023-05-12T09:51:16.317Z,1015.88
2023-05-12T09:52:16.352Z,1015.91
2023-05-12T09:53:16.297Z,1015.90
2023-05-12T09:54:16.321Z,1015.91
2023-05-12T09:55:16.284Z,1015.89
2023-05-12T09:56:16.272Z,1015.83
2023-05-12T09:57:16.274Z,1015.82
2023-05-12T09:58:16.304Z,1015.92
2023-05-12T09:59:16.232Z,1015.86
2023-05-12T10:00:31.207Z,1015.88
2023-05-12T10:01:23.109Z,1015.87
2023-05-12T10:02:17.319Z,1015.86
2023-05-12T10:03:16.252Z,1015.93
2023-05-12T10:04:16.277Z,1015.88
2023-05-12T10:05:16.166Z,1015.80
2023-05-12T10:06:16.167Z,1015.91
2023-05-12T10:07:16.168Z,1015.94
2023-05-12T10:08:16.180Z,1015.96
2023-05-12T10:09:16.150Z,1015.88
2023-05-12T10:10:16.134Z,1015.97
2023-05-12T10:11:16.103Z,1015.93
2023-05-12T10:12:16.158Z,1015.87
2023-05-12T10:13:16.079Z,1015.88
2023-05-12T10:14:16.084Z,1015.82
2023-05-12T10:15:16.066Z,1015.80
2023-05-12T10:16:16.069Z,1015.85
2023-05-12T10:17:16.115Z,1015.82
2023-05-12T10:18:16.098Z,1015.90
2023-05-12T10:19:16.018Z,1015.94
2023-05-12T10:20:16.009Z,1015.90
2023-05-12T10:21:16.031Z,1015.92
2023-05-12T10:22:16.014Z,1015.88
2023-05-12T10:23:15.984Z,1015.83
2023-05-12T10:24:15.989Z,1015.80
2023-05-12T10:25:15.959Z,1015.83
2023-05-12T10:26:15.956Z,1015.77
2023-05-12T10:27:15.971Z,1015.74
2023-05-12T10:28:15.937Z,1015.70
2023-05-12T10:29:15.921Z,1015.77
2023-05-12T10:30:15.919Z,1015.68
2023-05-12T10:31:15.981Z,1015.68
2023-05-12T10:32:15.896Z,1015.77
2023-05-12T10:33:15.966Z,1015.84
2023-05-12T10:34:15.885Z,1015.79
2023-05-12T10:35:15.848Z,1015.79
2023-05-12T10:36:15.867Z,1015.73
2023-05-12T10:37:15.853Z,1015.74
2023-05-12T10:38:15.833Z,1015.78
2023-05-12T10:39:15.809Z,1015.82
2023-05-12T10:40:15.944Z,1015.80
2023-05-12T10:41:15.794Z,1015.86
2023-05-12T10:42:15.822Z,1015.77
2023-05-12T10:43:15.795Z,1015.79
2023-05-12T10:44:15.771Z,1015.85
2023-05-12T10:45:15.758Z,1015.82
2023-05-12T10:46:15.799Z,1015.83
2023-05-12T10:47:15.763Z,1015.80
2023-05-12T10:48:15.724Z,1015.81
2023-05-12T10:49:15.797Z,1015.79
2023-05-12T10:50:15.722Z,1015.82
2023-05-12T10:51:15.697Z,1015.83
2023-05-12T10:52:15.700Z,1015.83
2023-05-12T10:53:15.664Z,1015.67
2023-05-12T10:54:15.662Z,1015.70
2023-05-12T10:55:15.753Z,1015.71
2023-05-12T10:56:15.933Z,1015.65
2023-05-12T10:57:18.428Z,1015.68
2023-05-12T10:58:16.045Z,1015.80
2023-05-12T10:59:15.914Z,1015.77
2023-05-12T11:00:15.948Z,1015.76
2023-05-12T11:01:15.825Z,1015.79
2023-05-12T11:02:15.856Z,1015.70
2023-05-12T11:03:16.676Z,1015.71
2023-05-12T11:04:16.122Z,1015.78
2023-05-12T11:05:15.789Z,1015.65
2023-05-12T11:06:15.801Z,1015.68
2023-05-12T11:07:16.553Z,1015.70
2023-05-12T11:08:15.972Z,1015.82
2023-05-12T11:09:15.815Z,1015.70
2023-05-12T11:10:15.605Z,1015.67
2023-05-12T11:11:15.995Z,1015.68
2023-05-12T11:12:15.467Z,1015.71
2023-05-12T11:13:15.485Z,1015.62
2023-05-12T11:14:15.451Z,1015.69
2023-05-12T11:15:17.806Z,1015.66
2023-05-12T11:16:15.465Z,1015.71
2023-05-12T11:17:15.408Z,1015.70
2023-05-12T11:18:15.431Z,1015.69
2023-05-12T11:19:15.456Z,1015.64
2023-05-12T11:20:15.376Z,1015.60
2023-05-12T11:21:15.396Z,1015.69
2023-05-12T11:22:15.368Z,1015.61
2023-05-12T11:23:15.349Z,1015.59
2023-05-12T11:24:15.368Z,1015.70
2023-05-12T11:25:15.363Z,1015.75
2023-05-12T11:26:15.320Z,1015.68
2023-05-12T11:27:15.338Z,1015.66
2023-05-12T11:28:15.307Z,1015.68
2023-05-12T11:29:15.287Z,1015.71
2023-05-12T11:30:15.281Z,1015.71
2023-05-12T11:31:15.362Z,1015.63
2023-05-12T11:32:15.288Z,1015.67
2023-05-12T11:33:15.262Z,1015.66
2023-05-12T11:34:15.251Z,1015.70
2023-05-12T11:35:15.259Z,1015.76
2023-05-12T11:36:15.218Z,1015.67
2023-05-12T11:37:15.270Z,1015.67
2023-05-12T11:38:15.195Z,1015.85
2023-05-12T11:39:15.207Z,1015.67
2023-05-12T11:40:15.176Z,1015.74
2023-05-12T11:41:15.165Z,1015.69
2023-05-12T11:42:17.009Z,1015.71
2023-05-12T11:43:15.170Z,1015.53
2023-05-12T11:44:15.135Z,1015.67
2023-05-12T11:45:15.146Z,1015.66
2023-05-12T11:46:15.140Z,1015.64
2023-05-12T11:47:15.118Z,1015.69
2023-05-12T11:48:15.220Z,1015.74
2023-05-12T11:49:15.090Z,1015.73
2023-05-12T11:50:15.120Z,1015.71
2023-05-12T11:51:15.058Z,1015.73
2023-05-12T11:52:15.057Z,1015.74
2023-05-12T11:53:15.328Z,1015.73
2023-05-12T11:54:15.026Z,1015.71
2023-05-12T11:55:15.017Z,1015.80
2023-05-12T11:56:15.007Z,1015.87
2023-05-12T11:57:14.999Z,1015.81
2023-05-12T11:58:15.014Z,1015.77
2023-05-12T11:59:14.971Z,1015.82
2023-05-12T12:00:14.973Z,1015.79
2023-05-12T12:01:14.956Z,1015.77
2023-05-12T12:02:14.971Z,1015.85
2023-05-12T12:03:15.449Z,1015.76
2023-05-12T12:04:14.948Z,1015.76
2023-05-12T12:05:14.942Z,1015.76
2023-05-12T12:06:14.910Z,1015.80
2023-05-12T12:07:14.906Z,1015.86